This is the latest recevied weather packets stored in our database for station/object DL0GY-13. If no packets are shown the sender has not sent any weather packets the latest 10 day(s).
| Time | Temp. | Humidity | Pressure | Rain* | Wind** | Luminosity | Snow |
|---|---|---|---|---|---|---|---|
| 1777534235 | 16.67° C | 34% | 1029.7 hPa | 0 mm | - | - | - |
| 1777533634 | 16.11° C | 33% | 1029.8 hPa | 0 mm | - | - | - |
| 1777533035 | 15.56° C | 35% | 1029.7 hPa | 0 mm | - | - | - |
| 1777532435 | 15.56° C | 36% | 1029.9 hPa | 0 mm | - | - | - |
| 1777531834 | 15° C | 37% | 1029.8 hPa | 0 mm | - | - | - |
| 1777531235 | 13.89° C | 39% | 1029.9 hPa | 0 mm | - | - | - |
| 1777530635 | 12.78° C | 40% | 1029.9 hPa | 0 mm | - | - | - |
| 1777530034 | 12.78° C | 42% | 1029.8 hPa | 0 mm | - | - | - |
| 1777529435 | 13.33° C | 43% | 1029.6 hPa | 0 mm | - | - | - |
| 1777528235 | 11.67° C | 47% | 1029.7 hPa | 0 mm | - | - | - |
| 1777527634 | 11.11° C | 48% | 1029.7 hPa | 0 mm | - | - | - |
| 1777527034 | 10.56° C | 50% | 1029.5 hPa | 0 mm | - | - | - |
| 1777526435 | 9.44° C | 51% | 1029.5 hPa | 0 mm | - | - | - |
| 1777525835 | 8.89° C | 52% | 1029.4 hPa | 0 mm | - | - | - |
| 1777525235 | 8.89° C | 55% | 1029.2 hPa | 0 mm | - | - | - |
| 1777524635 | 8.33° C | 56% | 1029.4 hPa | 0 mm | - | - | - |
| 1777524034 | 7.78° C | 59% | 1029.2 hPa | 0 mm | - | - | - |
| 1777522235 | 5.56° C | 64% | 1029 hPa | 0 mm | - | - | - |
| 1777521635 | 5.56° C | 64% | 1029 hPa | 0 mm | - | - | - |
| 1777521035 | 5.56° C | 63% | 1029 hPa | 0 mm | - | - | - |
| 1777520435 | 5.56° C | 63% | 1028.7 hPa | 0 mm | - | - | - |
| 1777519834 | 5.56° C | 63% | 1028.8 hPa | 0 mm | - | - | - |
| 1777519234 | 5.56° C | 62% | 1028.7 hPa | 0 mm | - | - | - |
| 1777518635 | 6.11° C | 61% | 1028.7 hPa | 0 mm | - | - | - |
| 1777518034 | 6.67° C | 60% | 1028.6 hPa | 0 mm | - | - | - |
* Rain latest hour (hover to see other rain measurements)
** Current wind speed in m/s (hover to see current wind gust speed)